Latest Weather Observations for Toowoomba

IDQ60901

Issued at 7:25 pm EST Wednesday 23 April 2014 (issued every 10 minutes, with the page automatically refreshed every 10 minutes)

About weather observations | Map of Brisbane area stations | Latest observations for Brisbane area | Other Formats
Station Details ID: 041529 Name: TOOWOOMBA AIRPORT Lat: -27.54 Lon: 151.91 Height: 640.9 m
Data from the previous 72 hours. | See also: Recent months at Toowoomba
Date/Time
EST
Tmp

°C
App
Tmp
°C
Dew
Point
°C
Rel
Hum
%
Delta-T

°C
Wind Press
QNH
hPa
Press
MSL
hPa
Rain
since
9 am
mm
Dir
 
Spd
km/h
Gust
km/h
Spd
kts
Gust
kts
23/07:00pm 17.8 15.4 8.6 55 4.9 E 11 13 6 7 1020.1 - 0.0
23/06:30pm 18.5 16.0 8.2 51 5.5 ENE 11 15 6 8 1019.9 - 0.0
23/06:00pm 19.1 16.5 7.8 48 6.0 ENE 11 13 6 7 1019.7 1017.4 0.0
23/05:30pm 20.4 17.8 7.7 44 6.8 ENE 11 13 6 7 1019.5 - 0.0
23/05:00pm 21.6 18.3 8.1 42 7.3 ENE 15 19 8 10 1019.2 - 0.0
23/04:30pm 22.3 19.3 9.1 43 7.3 NE 15 19 8 10 1019.1 - 0.0
23/04:00pm 22.9 20.4 8.2 39 8.0 ENE 11 19 6 10 1018.9 - 0.0
23/03:30pm 23.0 20.5 6.7 35 8.6 ENE 9 13 5 7 1019.0 - 0.0
23/03:00pm 23.4 20.3 7.1 35 8.7 ENE 13 22 7 12 1019.0 1016.7 0.0
23/02:30pm 23.8 20.9 8.2 37 8.5 NE 13 20 7 11 1019.1 - 0.0
23/02:00pm 23.6 20.2 7.7 36 8.6 E 15 22 8 12 1019.3 - 0.0
23/01:30pm 23.4 21.2 9.4 41 7.8 E 11 22 6 12 1019.6 - 0.0
23/01:00pm 22.9 19.9 9.3 42 7.6 E 15 22 8 12 1019.9 - 0.0
23/12:30pm 23.1 20.7 8.8 40 7.9 E 11 17 6 9 1020.5 - 0.0
23/12:00pm 22.7 20.1 9.5 43 7.3 E 13 20 7 11 1021.0 1018.7 0.0
23/11:30am 23.0 21.2 9.4 42 7.6 NE 9 13 5 7 1021.5 - 0.0
23/11:00am 22.4 19.9 8.1 40 7.8 ENE 11 19 6 10 1022.0 - 0.0
23/10:30am 21.7 19.0 7.5 40 7.6 E 11 19 6 10 1022.3 - 0.0
23/10:00am 21.1 18.0 9.0 46 6.6 E 15 17 8 9 1022.4 - 0.0
23/09:30am 20.5 19.5 12.2 59 4.8 NNE 9 13 5 7 1022.5 - 0.0
23/09:00am 19.7 18.7 13.4 67 3.7 NNE 11 15 6 8 1022.7 1020.4 0.0
23/08:30am 18.8 18.0 14.1 74 2.8 N 11 15 6 8 1022.8 - 0.0
23/08:00am 17.9 17.0 14.8 82 1.9 NNE 13 17 7 9 1022.5 - 0.0
23/07:30am 16.3 16.4 14.5 89 1.1 NE 7 9 4 5 1022.4 - 0.0
23/07:00am 13.7 12.8 12.6 93 0.6 E 9 9 5 5 1022.3 - 0.0
23/06:30am 13.1 12.0 11.8 92 0.7 E 9 9 5 5 1022.1 - 0.0
23/06:00am 12.5 11.2 11.1 91 0.8 E 9 11 5 6 1021.8 1019.6 0.0
23/05:30am 12.8 11.5 11.2 90 0.9 E 9 11 5 6 1021.6 - 0.0
23/05:00am 14.7 13.3 12.2 85 1.4 NE 11 15 6 8 1021.6 - 0.0
23/04:30am 14.4 13.4 12.4 88 1.1 NE 9 13 5 7 1021.4 - 0.0
23/04:00am 14.9 13.9 12.2 84 1.5 NNE 9 11 5 6 1021.0 - 0.0
23/03:30am 14.9 14.3 12.4 85 1.4 ENE 7 9 4 5 1020.9 - 0.0
23/03:00am 14.6 13.8 11.7 83 1.6 ENE 7 9 4 5 1020.9 1018.6 0.0
23/02:30am 15.1 14.6 12.2 83 1.6 NE 6 7 3 4 1021.1 - 0.0
23/02:00am 15.7 14.8 12.5 81 1.8 NNE 9 13 5 7 1021.3 - 0.0
23/01:30am 15.6 14.6 12.4 81 1.8 NNE 9 11 5 6 1021.5 - 0.0
23/01:00am 15.8 15.3 12.5 81 1.9 NE 7 13 4 7 1021.8 - 0.0
23/12:30am 15.8 14.7 13.1 84 1.5 NE 11 13 6 7 1021.8 - 0.0
23/12:00am 15.5 15.2 12.8 84 1.5 NE 6 9 3 5 1022.1 1019.8 0.0
 
Date/Time
EST
Tmp

°C
App
Tmp
°C
Dew
Point
°C
Rel
Hum
%
Delta-T

°C
Wind Press
QNH
hPa
Press
MSL
hPa
Rain
since
9 am
mm
Dir
 
Spd
km/h
Gust
km/h
Spd
kts
Gust
kts
22/11:30pm 15.7 15.5 13.0 84 1.5 NE 6 9 3 5 1022.3 - 0.0
22/11:00pm 15.9 15.4 12.8 82 1.8 N 7 9 4 5 1022.5 - 0.0
22/10:30pm 15.7 15.2 11.9 78 2.1 NNW 6 7 3 4 1022.6 - 0.0
22/10:00pm 16.2 15.1 12.0 76 2.4 ENE 9 13 5 7 1022.6 - 0.0
22/09:30pm 16.6 13.8 11.5 72 2.9 ENE 17 19 9 10 1022.6 - 0.0
22/09:00pm 17.0 14.6 11.5 70 3.1 E 15 17 8 9 1022.6 1020.3 0.0
22/08:30pm 16.6 14.5 11.1 70 3.1 ENE 13 15 7 8 1022.5 - 0.0
22/08:00pm 17.5 15.1 11.5 68 3.4 ENE 15 17 8 9 1022.4 - 0.0
22/07:30pm 17.5 15.5 11.5 68 3.4 ENE 13 17 7 9 1022.2 - 0.0
22/07:00pm 17.8 15.8 11.4 66 3.6 ENE 13 13 7 7 1022.1 - 0.0
22/06:30pm 18.4 16.8 11.5 64 3.9 ENE 11 13 6 7 1022.0 - 0.0
22/06:00pm 18.8 17.2 11.4 62 4.2 ENE 11 13 6 7 1021.7 1019.5 0.0
22/05:30pm 19.7 17.6 11.2 58 4.8 ENE 13 17 7 9 1021.5 - 0.0
22/05:00pm 20.8 18.3 11.2 54 5.5 ENE 15 19 8 10 1021.3 - 0.0
22/04:30pm 21.3 18.7 10.8 51 5.9 ENE 15 20 8 11 1021.4 - 0.0
22/04:00pm 22.3 19.4 11.1 49 6.4 ENE 17 24 9 13 1021.3 - 0.0
22/03:30pm 22.6 19.7 11.0 48 6.6 ENE 17 26 9 14 1021.3 - 0.0
22/03:00pm 22.9 19.8 11.6 49 6.5 ENE 19 24 10 13 1021.3 1019.0 0.0
22/02:30pm 22.9 20.3 11.9 50 6.4 E 17 22 9 12 1021.3 - 0.0
22/02:00pm 23.3 20.2 10.4 44 7.3 E 17 24 9 13 1021.5 - 0.0
22/01:30pm 22.4 20.4 11.5 50 6.3 E 13 22 7 12 1022.0 - 0.0
22/01:00pm 22.3 20.7 11.4 50 6.3 ENE 11 17 6 9 1022.2 - 0.0
22/12:30pm 22.4 20.4 14.0 59 5.0 ENE 17 22 9 12 1022.4 - 0.0
22/12:00pm 21.8 20.1 13.7 60 4.8 ENE 15 22 8 12 1023.1 1020.9 0.0
22/11:30am 21.7 19.6 13.6 60 4.8 ENE 17 24 9 13 1023.2 - 0.0
22/11:00am 22.3 21.3 13.4 57 5.3 N 11 15 6 8 1024.1 - 0.0
22/10:30am 21.3 20.6 13.2 60 4.8 NW 9 11 5 6 1024.6 - 0.0
22/10:00am 20.1 19.5 13.6 66 3.8 NE 9 15 5 8 1024.8 - 0.0
22/09:30am 19.1 17.2 13.1 68 3.5 ENE 15 20 8 11 1024.3 - 0.0
22/09:00am 18.8 17.0 13.4 71 3.1 ENE 15 19 8 10 1024.4 1022.2 0.0
22/08:30am 17.9 15.9 12.8 72 2.9 NE 15 20 8 11 1024.4 - 0.0
22/08:00am 17.1 15.4 12.6 75 2.6 ENE 13 17 7 9 1024.5 - 0.0
22/07:30am 16.6 15.4 12.9 79 2.1 ENE 11 13 6 7 1024.3 - 0.0
22/07:00am 14.6 13.3 12.6 88 1.1 E 11 13 6 7 1024.0 - 0.0
22/06:30am 13.4 11.5 11.8 90 0.9 E 13 13 7 7 1023.7 - 0.0
22/06:00am 12.9 11.6 11.1 89 1.0 E 9 11 5 6 1023.5 1021.3 0.0
22/05:30am 13.6 12.0 11.5 87 1.2 ENE 11 15 6 8 1023.3 - 0.0
22/05:00am 14.2 12.4 12.1 87 1.2 NE 13 17 7 9 1023.1 - 0.0
22/04:30am 14.3 12.4 11.8 85 1.4 ENE 13 15 7 8 1022.8 - 0.0
22/04:00am 14.2 12.3 11.9 86 1.3 ENE 13 17 7 9 1022.7 - 0.0
22/03:30am 14.4 12.8 11.7 84 1.5 NE 11 15 6 8 1022.8 - 0.0
22/03:00am 14.9 13.1 12.2 84 1.5 ENE 13 15 7 8 1022.7 1020.4 0.0
22/02:30am 15.1 12.9 12.2 83 1.6 NE 15 20 8 11 1022.6 - 0.0
22/02:00am 15.3 12.8 12.2 82 1.7 ENE 17 20 9 11 1022.6 - 0.0
22/01:30am 15.6 13.4 12.2 80 1.9 ENE 15 19 8 10 1022.9 - 0.0
22/01:00am 15.6 13.1 12.2 80 1.9 ENE 17 19 9 10 1022.9 - 0.0
22/12:30am 16.1 13.3 12.5 79 2.0 ENE 19 24 10 13 1022.9 - 0.0
22/12:00am 15.5 13.8 12.4 82 1.7 E 13 17 7 9 1023.1 1020.9 0.0
 
Date/Time
EST
Tmp

°C
App
Tmp
°C
Dew
Point
°C
Rel
Hum
%
Delta-T

°C
Wind Press
QNH
hPa
Press
MSL
hPa
Rain
since
9 am
mm
Dir
 
Spd
km/h
Gust
km/h
Spd
kts
Gust
kts
21/11:30pm 15.7 14.0 12.5 81 1.8 ENE 13 15 7 8 1023.4 - 0.0
21/11:00pm 16.1 14.0 12.5 79 2.0 E 15 17 8 9 1023.4 - 0.0
21/10:30pm 17.1 14.9 12.0 72 2.9 ENE 15 19 8 10 1023.4 - 0.0
21/10:00pm 17.7 15.2 12.2 70 3.1 ENE 17 20 9 11 1023.3 - 0.0
21/09:30pm 17.7 15.4 11.9 69 3.3 ENE 15 19 8 10 1023.4 - 0.0
21/09:00pm 18.3 15.6 11.6 65 3.8 ENE 17 20 9 11 1023.2 1021.0 0.0
21/08:30pm 18.9 16.1 11.2 61 4.3 ENE 17 22 9 12 1023.0 - 0.0
21/08:00pm 18.9 16.8 11.0 60 4.4 ENE 13 15 7 8 1022.8 - 0.0
21/07:30pm 19.0 17.0 11.6 62 4.2 ENE 13 17 7 9 1022.8 - 0.0
21/07:00pm 19.4 17.5 11.9 62 4.3 ENE 13 15 7 8 1022.5 - 0.0
21/06:30pm 19.6 17.9 12.6 64 4.1 ENE 13 17 7 9 1022.2 - 0.0
21/06:00pm 20.1 18.8 12.6 62 4.3 ENE 11 15 6 8 1021.8 1019.6 0.0
21/05:30pm 20.9 19.3 12.8 60 4.7 ENE 13 19 7 10 1021.6 - 0.0
21/05:00pm 22.0 19.3 12.8 56 5.4 ENE 19 22 10 12 1021.2 - 0.0
21/04:30pm 22.7 20.0 12.9 54 5.8 E 19 22 10 12 1021.0 - 0.0
21/04:00pm 24.0 21.3 10.3 42 7.8 ENE 15 22 8 12 1020.8 - 0.0
21/03:30pm 24.8 24.1 11.4 43 7.8 NNE 6 15 3 8 1020.9 - 0.0
21/03:00pm 25.2 23.8 9.5 37 8.8 W 7 17 4 9 1021.0 1018.7 0.0
21/02:30pm 25.4 23.8 10.1 38 8.7 NNW 9 17 5 9 1021.1 - 0.0
21/02:00pm 24.4 22.5 9.2 38 8.5 SSW 9 13 5 7 1021.2 - 0.0
21/01:30pm 24.3 23.4 10.6 42 7.8 NE 6 15 3 8 1021.5 - 0.0
21/01:00pm 23.4 21.6 9.4 41 7.8 NW 9 17 5 9 1022.1 - 0.0
21/12:30pm 23.8 21.6 9.4 40 8.0 WNW 11 22 6 12 1022.4 - 0.0
21/12:00pm 23.4 22.3 10.8 45 7.2 NNW 7 15 4 8 1022.9 1020.7 0.0
21/11:30am 22.6 20.5 11.0 48 6.6 NNW 13 20 7 11 1023.4 - 0.0
21/11:00am 22.2 20.0 10.7 48 6.5 NW 13 22 7 12 1023.8 - 0.0
21/10:30am 21.6 20.0 11.6 53 5.7 NW 11 17 6 9 1024.0 - 0.0
21/10:00am 21.2 19.8 12.3 57 5.2 NNW 11 17 6 9 1024.1 - 0.0
21/09:30am 20.2 19.3 12.7 62 4.4 NNW 9 17 5 9 1024.1 - 0.0
21/09:00am 19.5 18.8 13.2 67 3.7 N 9 13 5 7 1024.2 1022.0 0.0
21/08:30am 18.3 16.2 12.3 68 3.4 N 15 20 8 11 1023.9 - 0.0
21/08:00am 17.9 16.6 12.4 70 3.1 N 11 17 6 9 1023.7 - 0.0
21/07:30am 17.1 15.2 11.8 71 3.0 NNE 13 19 7 10 1023.3 - 0.0
21/07:00am 14.3 13.0 11.3 82 1.7 ENE 9 13 5 7 1023.0 - 0.0
21/06:30am 13.4 11.7 11.1 86 1.3 ENE 11 15 6 8 1022.6 - 0.0
21/06:00am 11.3 9.2 8.3 82 1.5 ENE 9 13 5 7 1022.3 1020.0 0.0
21/05:30am 13.5 11.3 9.2 75 2.3 NE 11 15 6 8 1022.0 - 0.0
21/05:00am 15.5 12.9 9.2 66 3.4 NE 13 19 7 10 1021.6 - 0.0
21/04:30am 15.0 12.7 9.1 68 3.1 NE 11 17 6 9 1021.3 - 0.0
21/04:00am 15.8 12.8 9.2 65 3.5 NNE 15 22 8 12 1021.1 - 0.0
21/03:30am 16.0 13.4 9.4 65 3.5 NE 13 20 7 11 1020.9 - 0.0
21/03:00am 15.7 13.1 9.4 66 3.4 NE 13 17 7 9 1020.8 1018.5 0.0
21/02:30am 16.3 12.9 9.0 62 3.9 NNE 17 22 9 12 1020.7 - 0.0
21/02:00am 16.4 13.4 9.3 63 3.8 NNE 15 20 8 11 1020.8 - 0.0
21/01:30am 16.8 14.1 10.2 65 3.6 NNE 15 22 8 12 1021.0 - 0.0
21/01:00am 16.8 13.4 10.4 66 3.5 N 19 24 10 13 1021.1 - 0.0
21/12:30am 17.0 13.7 10.8 67 3.4 N 19 26 10 14 1021.2 - 0.0
21/12:00am 17.0 14.1 11.1 68 3.3 NNE 17 24 9 13 1021.4 1019.2 0.0
 
Date/Time
EST
Tmp

°C
App
Tmp
°C
Dew
Point
°C
Rel
Hum
%
Delta-T

°C
Wind Press
QNH
hPa
Press
MSL
hPa
Rain
since
9 am
mm
Dir
 
Spd
km/h
Gust
km/h
Spd
kts
Gust
kts
20/11:30pm 17.4 14.2 10.1 62 4.0 NNE 17 22 9 12 1021.4 - 0.0
20/11:00pm 16.4 14.3 8.4 59 4.2 NE 9 15 5 8 1021.5 - 0.0
20/10:30pm 17.8 14.9 8.1 53 5.1 NE 13 20 7 11 1021.4 - 0.0
20/10:00pm 17.2 14.3 8.1 55 4.8 NE 13 17 7 9 1021.5 - 0.0
20/09:30pm 17.7 15.6 8.3 54 5.0 NNE 9 13 5 7 1021.5 - 0.0
20/09:00pm 17.1 14.6 8.3 56 4.6 NE 11 13 6 7 1021.3 1019.0 0.0
20/08:30pm 18.0 15.5 8.3 53 5.1 NE 11 15 6 8 1021.2 - 0.0
20/08:00pm 18.0 15.6 8.6 54 5.0 NE 11 15 6 8 1021.0 - 0.0
20/07:30pm 17.8 15.6 9.2 57 4.6 NE 11 13 6 7 1020.8 - 0.0

Latest Capital City Observations: Canberra | Sydney | Melbourne | Brisbane | Adelaide | Perth | Hobart | Darwin

Other Formats:

Comma delimited format used in spreadsheet applications
http://www.bom.gov.au/fwo/IDQ60901/IDQ60901.95551.axf

JavaScript Object Notation format (JSON) in row-major order
http://www.bom.gov.au/fwo/IDQ60901/IDQ60901.95551.json